Kirkland, WA

7:04 PM PDT on April 24, 2015 (GMT -0700)
North Rose Hill | | Change Station
CLOSE
Current Station
Personal Weather Station
Location: Kirkland, WA
Elevation: 280 ft
Nearby Weather Stations

Elev 280 ft 47.69 °N, 122.18 °W | Updated 3 minutes ago

Mostly Cloudy
Mostly Cloudy
50.4 °F
Feels Like 50.4 °F
N
1.0
Wind Variable Wind from SSE
Gusts 12.0 mph

Today
High -- | Low -- °F
--% Chance of Precip.
Yesterday
High -- | Low -- °F
Precip. -- in
6:03 AM 8:11 PM
Waxing Crescent, 41% visible
Pressure 29.83 in
Visibility 10.0 miles
Clouds Scattered Clouds 4800 ft
Mostly Cloudy 6000 ft
Mostly Cloudy 7000 ft
Dew Point 42 °F
Humidity 73%
Rainfall 0.07 in
Snow Depth Not available.
UV 0 out of 12
Pollen 8.50 out of 12
Air Quality Not available.
Flu Activity Regional
METAR KBFI 250153Z 15013G20KT 10SM SCT048 BKN060 BKN070 12/04 A2983 RMK AO2 SLP100 T01220044

More Conditions Fewer Conditions

Pressure 29.83 in
Visibility 10.0 miles
Clouds Scattered Clouds 4800 ft
Mostly Cloudy 6000 ft
Mostly Cloudy 7000 ft
Dew Point 42 °F
Humidity 73%
Rainfall 0.07 in
Snow Depth Not available.
UV 0 out of 12
Pollen 8.50 out of 12
Air Quality Not available.
Flu Activity Regional
METAR KBFI 250153Z 15013G20KT 10SM SCT048 BKN060 BKN070 12/04 A2983 RMK AO2 SLP100 T01220044

More Conditions Fewer Conditions

10-Day Weather Forecast

Almanac

Astronomy

Apr. 24, 2015 Rise Set
Actual Time
Civil Twilight
Nautical Twilight
Astronomical Twilight
Moon
Length of Visible Light
Length of Day
Tomorrow will be .
, % of the Moon is Illuminated

Today's Extremes

State Highs State Lows

Community

WunderPhotos

Upload Photos

1,816,566 photos uploaded!

WunderBlogs® & News

Nearby

Air Quality

  Air Quality AQ Index Pollutant
Not available.

Snow Depth

Station Depth Elevation

Earthquake Activity

City Distance Mag. Time & Date
Minimum magnitude displayed is 2.5.

Coastal Water Temperatures

Place Temperature

Stations

Nearby Weather Stations

Station Location Temp. Windchill Dew Point Humidity Wind Precip. Elev Updated Type